createdAt,value
2023-01-28T00:00:15.375Z,9.17
2023-01-28T00:05:19.545Z,5.57
2023-01-28T00:10:35.165Z,5.90
2023-01-28T00:15:37.950Z,6.80
2023-01-28T00:20:39.749Z,4.93
2023-01-28T00:25:44.081Z,4.60
2023-01-28T00:30:54.153Z,3.83
2023-01-28T00:36:01.005Z,5.47
2023-01-28T00:41:13.595Z,5.37
2023-01-28T00:46:25.955Z,7.93
2023-01-28T00:51:30.481Z,4.17
2023-01-28T00:56:33.618Z,5.90
2023-01-28T01:01:35.940Z,4.77
2023-01-28T01:06:43.185Z,5.50
2023-01-28T01:11:44.951Z,4.77
2023-01-28T01:16:54.495Z,5.40
2023-01-28T01:21:58.186Z,5.30
2023-01-28T01:27:06.513Z,6.03
2023-01-28T01:32:08.465Z,5.40
2023-01-28T01:37:20.546Z,8.47
2023-01-28T01:48:05.022Z,5.33
2023-01-28T01:53:14.552Z,5.87
2023-01-28T01:58:21.456Z,6.63
2023-01-28T02:03:57.523Z,5.90
2023-01-28T02:09:01.438Z,8.00
2023-01-28T02:14:07.916Z,6.97
2023-01-28T02:19:14.385Z,5.73
2023-01-28T02:24:47.507Z,5.47
2023-01-28T02:30:25.969Z,5.50
2023-01-28T02:35:46.442Z,6.20
2023-01-28T02:41:07.033Z,5.73
2023-01-28T02:46:36.554Z,6.97
2023-01-28T02:52:23.721Z,5.43
2023-01-28T02:57:57.522Z,6.53
2023-01-28T03:03:33.843Z,5.97
2023-01-28T03:08:58.945Z,5.63
2023-01-28T03:14:23.885Z,6.70
2023-01-28T03:19:44.450Z,6.47
2023-01-28T03:25:07.640Z,7.87
2023-01-28T03:31:24.141Z,7.27
2023-01-28T03:37:01.757Z,7.90
2023-01-28T03:42:16.386Z,7.90
2023-01-28T03:47:44.164Z,7.83
2023-01-28T03:52:50.911Z,7.13
2023-01-28T03:57:59.624Z,6.60
2023-01-28T04:03:01.400Z,8.83
2023-01-28T04:08:03.112Z,7.20
2023-01-28T04:13:05.629Z,7.47
2023-01-28T04:18:07.432Z,6.40
2023-01-28T04:23:11.697Z,8.13
2023-01-28T04:28:15.163Z,7.47
2023-01-28T04:33:19.429Z,10.23
2023-01-28T04:38:23.337Z,9.73
2023-01-28T04:43:29.935Z,6.43
2023-01-28T04:48:36.568Z,6.90
2023-01-28T04:53:43.147Z,7.87
2023-01-28T04:58:53.463Z,7.70
2023-01-28T05:03:56.672Z,7.47
2023-01-28T05:08:58.520Z,6.33
2023-01-28T05:14:06.685Z,8.03
2023-01-28T05:19:14.364Z,11.07
2023-01-28T05:24:30.979Z,7.00
2023-01-28T05:29:40.123Z,7.20
2023-01-28T05:34:41.875Z,7.10
2023-01-28T05:39:44.500Z,7.00
2023-01-28T05:44:51.015Z,5.30
2023-01-28T05:49:58.344Z,5.87
2023-01-28T05:55:05.405Z,6.60
2023-01-28T06:00:10.560Z,6.97
2023-01-28T06:05:16.391Z,6.33
2023-01-28T06:10:18.293Z,5.93
2023-01-28T06:15:20.063Z,7.27
2023-01-28T06:20:21.941Z,5.30
2023-01-28T06:25:24.951Z,5.97
2023-01-28T06:30:37.554Z,6.30
2023-01-28T06:35:39.664Z,6.03
2023-01-28T06:40:43.815Z,6.67
2023-01-28T06:45:47.294Z,7.83
2023-01-28T06:50:54.246Z,7.37
2023-01-28T06:55:58.340Z,7.27
2023-01-28T07:01:03.789Z,6.60
2023-01-28T07:06:14.714Z,6.00
2023-01-28T07:11:16.993Z,10.67
2023-01-28T07:16:23.467Z,6.27
2023-01-28T07:21:37.208Z,7.20
2023-01-28T07:26:43.039Z,7.70
2023-01-28T07:31:55.798Z,6.83
2023-01-28T07:36:57.868Z,8.20
2023-01-28T07:41:59.698Z,8.83
2023-01-28T07:47:17.096Z,7.90
2023-01-28T07:52:19.311Z,7.93
2023-01-28T07:57:24.498Z,8.73
2023-01-28T08:02:38.016Z,7.73
2023-01-28T08:07:53.369Z,7.67
2023-01-28T08:13:13.746Z,7.50
2023-01-28T08:18:33.539Z,9.27
2023-01-28T08:23:59.122Z,9.43
2023-01-28T08:29:06.778Z,10.70
2023-01-28T08:34:15.860Z,9.80
2023-01-28T08:45:44.389Z,8.77
2023-01-28T08:50:58.392Z,7.87
2023-01-28T08:56:27.879Z,8.93
2023-01-28T09:01:38.351Z,9.50
2023-01-28T09:06:53.555Z,9.70
2023-01-28T09:12:17.806Z,11.63
2023-01-28T09:17:21.445Z,9.87
2023-01-28T09:23:13.489Z,13.77
2023-01-28T09:28:16.111Z,9.37
2023-01-28T09:33:20.629Z,11.57
2023-01-28T09:45:19.782Z,7.87
2023-01-28T09:50:44.417Z,9.60
2023-01-28T09:56:05.521Z,9.30
2023-01-28T10:01:59.283Z,7.80
2023-01-28T10:08:03.463Z,8.27
2023-01-28T10:13:39.423Z,8.80
2023-01-28T10:19:06.375Z,9.27
2023-01-28T10:24:28.277Z,7.90
2023-01-28T10:29:58.713Z,7.47
2023-01-28T10:35:17.422Z,8.70
2023-01-28T10:40:23.378Z,12.30
2023-01-28T10:45:35.100Z,9.73
2023-01-28T10:51:05.858Z,8.07
2023-01-28T10:56:32.980Z,9.07
2023-01-28T11:02:13.453Z,9.50
2023-01-28T11:07:29.885Z,8.83
2023-01-28T11:12:44.792Z,12.27
2023-01-28T11:24:31.027Z,10.60
2023-01-28T11:35:37.463Z,10.43
2023-01-28T11:41:07.242Z,14.53
2023-01-28T11:47:10.777Z,14.57
2023-01-28T11:53:08.702Z,17.13
2023-01-28T12:00:16.845Z,15.33
2023-01-28T12:05:53.495Z,16.43
2023-01-28T12:11:54.183Z,13.13
2023-01-28T12:17:24.785Z,14.57
2023-01-28T12:23:25.180Z,15.40
2023-01-28T12:29:30.852Z,14.80
2023-01-28T12:35:04.174Z,14.10
2023-01-28T12:40:25.070Z,13.70
2023-01-28T12:52:12.613Z,13.13
2023-01-28T12:57:45.295Z,14.03
2023-01-28T13:03:18.736Z,12.17
2023-01-28T13:14:16.734Z,11.87
2023-01-28T13:31:24.046Z,10.80
2023-01-28T13:36:57.961Z,13.00
2023-01-28T13:42:41.543Z,13.93
2023-01-28T13:48:27.202Z,14.53
2023-01-28T13:54:14.188Z,12.87
2023-01-28T13:59:41.192Z,14.70
2023-01-28T14:04:52.282Z,16.30
2023-01-28T14:11:00.433Z,13.87
2023-01-28T14:16:40.722Z,12.90
2023-01-28T14:22:07.810Z,14.80
2023-01-28T14:28:16.606Z,13.60
2023-01-28T14:33:28.587Z,13.43
2023-01-28T14:38:51.991Z,14.27
2023-01-28T14:44:43.980Z,14.27
2023-01-28T14:50:20.346Z,14.80
2023-01-28T14:56:15.397Z,14.77
2023-01-28T15:09:03.339Z,13.97
2023-01-28T15:14:18.832Z,15.57
2023-01-28T15:25:05.486Z,14.17
2023-01-28T15:31:01.060Z,15.03
2023-01-28T15:36:03.496Z,15.17
2023-01-28T15:41:34.806Z,13.00
2023-01-28T15:47:35.701Z,15.17
2023-01-28T15:52:52.027Z,17.47
2023-01-28T15:58:55.823Z,14.37
2023-01-28T16:04:14.351Z,14.67
2023-01-28T16:09:37.816Z,15.40
2023-01-28T16:15:09.995Z,15.90
2023-01-28T16:20:43.191Z,14.27
2023-01-28T16:25:45.180Z,19.10
2023-01-28T16:36:26.694Z,19.87
2023-01-28T16:41:41.487Z,21.30
2023-01-28T16:46:49.668Z,16.50
2023-01-28T16:52:04.252Z,15.37
2023-01-28T16:57:19.660Z,14.17
2023-01-28T17:02:25.736Z,17.47
2023-01-28T17:07:32.522Z,14.53
2023-01-28T17:12:36.530Z,15.80
2023-01-28T17:17:38.593Z,25.80
2023-01-28T17:22:45.834Z,30.87
2023-01-28T17:28:00.148Z,23.53
2023-01-28T17:33:23.167Z,22.40
2023-01-28T17:44:09.972Z,20.03
2023-01-28T17:56:03.563Z,18.80
2023-01-28T18:07:26.260Z,21.60
2023-01-28T18:18:08.658Z,29.80
2023-01-28T18:23:18.133Z,21.23
2023-01-28T18:28:40.395Z,22.03
2023-01-28T18:34:12.028Z,21.17
2023-01-28T18:40:08.285Z,23.03
2023-01-28T18:51:30.811Z,23.67
2023-01-28T19:03:24.268Z,34.60
2023-01-28T19:38:12.382Z,32.00
2023-01-28T19:43:24.291Z,29.90
2023-01-28T19:48:30.482Z,27.43
2023-01-28T19:53:32.274Z,25.80
2023-01-28T19:58:39.750Z,27.40
2023-01-28T20:03:46.146Z,32.80
2023-01-28T20:09:05.658Z,25.00
2023-01-28T20:14:25.101Z,25.70
2023-01-28T20:19:47.513Z,29.40
2023-01-28T20:24:59.997Z,26.13
2023-01-28T20:30:04.813Z,34.80
2023-01-28T20:35:10.308Z,28.37
2023-01-28T20:40:24.107Z,41.57
2023-01-28T20:45:28.618Z,42.43
2023-01-28T20:55:59.960Z,29.90
2023-01-28T21:01:04.321Z,27.13
2023-01-28T21:06:08.546Z,29.60
2023-01-28T21:11:12.868Z,31.90
2023-01-28T21:16:15.608Z,28.37
2023-01-28T21:21:29.295Z,30.80
2023-01-28T21:26:31.113Z,31.53
2023-01-28T21:31:33.045Z,35.87
2023-01-28T21:36:40.973Z,28.57
2023-01-28T21:41:51.100Z,40.77
2023-01-28T21:46:56.585Z,28.83
2023-01-28T21:52:01.236Z,32.87
2023-01-28T21:57:08.538Z,28.77
2023-01-28T22:02:17.077Z,26.90
2023-01-28T22:07:45.197Z,31.57
2023-01-28T22:12:48.858Z,29.90
2023-01-28T22:18:02.596Z,31.33
2023-01-28T22:23:09.435Z,29.77
2023-01-28T22:28:11.210Z,35.40
2023-01-28T22:33:13.185Z,37.70
2023-01-28T22:38:15.552Z,31.77
2023-01-28T22:43:22.617Z,34.80
2023-01-28T22:48:27.240Z,33.77
2023-01-28T22:53:31.239Z,35.07
2023-01-28T22:58:56.099Z,33.93
2023-01-28T23:04:03.813Z,33.70
2023-01-28T23:09:08.192Z,34.97
2023-01-28T23:14:31.793Z,65.43
2023-01-28T23:41:19.865Z,37.60
2023-01-28T23:57:32.523Z,36.13
